sensor_id;sensor_type;location;lat;lon;timestamp;temperature;humidity
14908;DHT22;7545;52.092;7.006;2022-11-13T00:01:10;8.10;99.90
14908;DHT22;7545;52.092;7.006;2022-11-13T00:03:36;8.10;99.90
14908;DHT22;7545;52.092;7.006;2022-11-13T00:06:02;8.00;99.90
14908;DHT22;7545;52.092;7.006;2022-11-13T00:08:27;8.00;99.90
14908;DHT22;7545;52.092;7.006;2022-11-13T00:11:14;7.90;99.90
14908;DHT22;7545;52.092;7.006;2022-11-13T00:13:42;8.00;99.90
14908;DHT22;7545;52.092;7.006;2022-11-13T00:16:15;8.00;99.90
14908;DHT22;7545;52.092;7.006;2022-11-13T00:18:42;7.90;99.90
14908;DHT22;7545;52.092;7.006;2022-11-13T00:21:11;7.90;99.90
14908;DHT22;7545;52.092;7.006;2022-11-13T00:23:37;7.90;99.90
14908;DHT22;7545;52.092;7.006;2022-11-13T00:26:11;7.90;99.90
14908;DHT22;7545;52.092;7.006;2022-11-13T00:28:37;7.90;99.90
14908;DHT22;7545;52.092;7.006;2022-11-13T00:31:04;7.90;99.90
14908;DHT22;7545;52.092;7.006;2022-11-13T00:33:30;7.80;99.90
14908;DHT22;7545;52.092;7.006;2022-11-13T00:36:14;7.80;99.90
14908;DHT22;7545;52.092;7.006;2022-11-13T00:38:40;7.80;99.90
14908;DHT22;7545;52.092;7.006;2022-11-13T00:41:05;7.80;99.90
14908;DHT22;7545;52.092;7.006;2022-11-13T00:43:31;7.70;99.90
14908;DHT22;7545;52.092;7.006;2022-11-13T00:45:57;7.70;99.90
14908;DHT22;7545;52.092;7.006;2022-11-13T00:48:22;7.70;99.90
14908;DHT22;7545;52.092;7.006;2022-11-13T00:50:48;7.70;99.90
14908;DHT22;7545;52.092;7.006;2022-11-13T00:53:14;7.70;99.90
14908;DHT22;7545;52.092;7.006;2022-11-13T00:55:41;7.70;99.90
14908;DHT22;7545;52.092;7.006;2022-11-13T00:58:07;7.70;99.90
14908;DHT22;7545;52.092;7.006;2022-11-13T01:00:33;7.70;99.90
14908;DHT22;7545;52.092;7.006;2022-11-13T01:02:59;7.70;99.90
14908;DHT22;7545;52.092;7.006;2022-11-13T01:05:25;7.60;99.90
14908;DHT22;7545;52.092;7.006;2022-11-13T01:07:50;7.60;99.90
14908;DHT22;7545;52.092;7.006;2022-11-13T01:10:16;7.60;99.90
14908;DHT22;7545;52.092;7.006;2022-11-13T01:12:42;7.50;99.90
14908;DHT22;7545;52.092;7.006;2022-11-13T01:15:08;7.50;99.90
14908;DHT22;7545;52.092;7.006;2022-11-13T01:17:33;7.50;99.90
14908;DHT22;7545;52.092;7.006;2022-11-13T01:19:59;7.50;99.90
14908;DHT22;7545;52.092;7.006;2022-11-13T01:22:25;7.50;99.90
14908;DHT22;7545;52.092;7.006;2022-11-13T01:24:50;7.40;99.90
14908;DHT22;7545;52.092;7.006;2022-11-13T01:27:16;7.40;99.90
14908;DHT22;7545;52.092;7.006;2022-11-13T01:29:42;7.40;99.90
14908;DHT22;7545;52.092;7.006;2022-11-13T01:32:08;7.40;99.90
14908;DHT22;7545;52.092;7.006;2022-11-13T01:34:33;7.50;99.90
14908;DHT22;7545;52.092;7.006;2022-11-13T01:36:59;7.50;99.90
14908;DHT22;7545;52.092;7.006;2022-11-13T01:39:25;7.40;99.90
14908;DHT22;7545;52.092;7.006;2022-11-13T01:41:50;7.40;99.90
14908;DHT22;7545;52.092;7.006;2022-11-13T01:44:17;7.40;99.90
14908;DHT22;7545;52.092;7.006;2022-11-13T01:46:49;7.40;99.90
14908;DHT22;7545;52.092;7.006;2022-11-13T01:49:24;7.40;99.90
14908;DHT22;7545;52.092;7.006;2022-11-13T01:51:55;7.30;99.90
14908;DHT22;7545;52.092;7.006;2022-11-13T01:54:25;7.30;99.90
14908;DHT22;7545;52.092;7.006;2022-11-13T01:56:53;7.30;99.90
14908;DHT22;7545;52.092;7.006;2022-11-13T01:59:25;7.30;99.90
14908;DHT22;7545;52.092;7.006;2022-11-13T02:01:52;7.30;99.90
14908;DHT22;7545;52.092;7.006;2022-11-13T02:04:18;7.20;99.90
14908;DHT22;7545;52.092;7.006;2022-11-13T02:06:54;7.20;99.90
14908;DHT22;7545;52.092;7.006;2022-11-13T02:09:25;7.20;99.90
14908;DHT22;7545;52.092;7.006;2022-11-13T02:11:51;7.20;99.90
14908;DHT22;7545;52.092;7.006;2022-11-13T02:14:18;7.20;99.90
14908;DHT22;7545;52.092;7.006;2022-11-13T02:16:46;7.10;99.90
14908;DHT22;7545;52.092;7.006;2022-11-13T02:19:21;7.20;99.90
14908;DHT22;7545;52.092;7.006;2022-11-13T02:22:06;7.20;99.90
14908;DHT22;7545;52.092;7.006;2022-11-13T02:24:41;7.10;99.90
14908;DHT22;7545;52.092;7.006;2022-11-13T02:27:19;7.20;99.90
14908;DHT22;7545;52.092;7.006;2022-11-13T02:29:45;7.10;99.90
14908;DHT22;7545;52.092;7.006;2022-11-13T02:32:11;7.20;99.90
14908;DHT22;7545;52.092;7.006;2022-11-13T02:34:36;7.20;99.90
14908;DHT22;7545;52.092;7.006;2022-11-13T02:37:02;7.10;99.90
14908;DHT22;7545;52.092;7.006;2022-11-13T02:39:27;7.10;99.90
14908;DHT22;7545;52.092;7.006;2022-11-13T02:41:53;7.10;99.90
14908;DHT22;7545;52.092;7.006;2022-11-13T02:44:18;7.10;99.90
14908;DHT22;7545;52.092;7.006;2022-11-13T02:46:44;7.10;99.90
14908;DHT22;7545;52.092;7.006;2022-11-13T02:49:09;7.10;99.90
14908;DHT22;7545;52.092;7.006;2022-11-13T02:51:35;7.10;99.90
14908;DHT22;7545;52.092;7.006;2022-11-13T02:54:01;7.10;99.90
14908;DHT22;7545;52.092;7.006;2022-11-13T02:56:26;7.10;99.90
14908;DHT22;7545;52.092;7.006;2022-11-13T02:58:52;7.00;99.90
14908;DHT22;7545;52.092;7.006;2022-11-13T03:01:18;7.00;99.90
14908;DHT22;7545;52.092;7.006;2022-11-13T03:03:43;7.10;99.90
14908;DHT22;7545;52.092;7.006;2022-11-13T03:06:09;7.10;99.90
14908;DHT22;7545;52.092;7.006;2022-11-13T03:08:34;7.00;99.90
14908;DHT22;7545;52.092;7.006;2022-11-13T03:11:06;7.00;99.90
14908;DHT22;7545;52.092;7.006;2022-11-13T03:13:31;7.10;99.90
14908;DHT22;7545;52.092;7.006;2022-11-13T03:16:07;7.10;99.90
14908;DHT22;7545;52.092;7.006;2022-11-13T03:18:33;7.10;99.90
14908;DHT22;7545;52.092;7.006;2022-11-13T03:21:05;7.10;99.90
14908;DHT22;7545;52.092;7.006;2022-11-13T03:23:31;7.10;99.90
14908;DHT22;7545;52.092;7.006;2022-11-13T03:26:02;7.10;99.90
14908;DHT22;7545;52.092;7.006;2022-11-13T03:28:28;7.10;99.90
14908;DHT22;7545;52.092;7.006;2022-11-13T03:30:54;7.10;99.90
14908;DHT22;7545;52.092;7.006;2022-11-13T03:33:19;7.10;99.90
14908;DHT22;7545;52.092;7.006;2022-11-13T03:35:46;7.00;99.90
14908;DHT22;7545;52.092;7.006;2022-11-13T03:38:12;7.10;99.90
14908;DHT22;7545;52.092;7.006;2022-11-13T03:40:37;7.00;99.90
14908;DHT22;7545;52.092;7.006;2022-11-13T03:43:03;7.00;99.90
14908;DHT22;7545;52.092;7.006;2022-11-13T03:45:29;7.10;99.90
14908;DHT22;7545;52.092;7.006;2022-11-13T03:47:54;7.10;99.90
14908;DHT22;7545;52.092;7.006;2022-11-13T03:50:20;7.00;99.90
14908;DHT22;7545;52.092;7.006;2022-11-13T03:52:45;7.00;99.90
14908;DHT22;7545;52.092;7.006;2022-11-13T03:55:11;7.10;99.90
14908;DHT22;7545;52.092;7.006;2022-11-13T03:57:36;7.10;99.90
14908;DHT22;7545;52.092;7.006;2022-11-13T04:00:03;7.10;99.90
14908;DHT22;7545;52.092;7.006;2022-11-13T04:02:29;7.10;99.90
14908;DHT22;7545;52.092;7.006;2022-11-13T04:04:55;7.10;99.90
14908;DHT22;7545;52.092;7.006;2022-11-13T04:07:20;7.00;99.90
14908;DHT22;7545;52.092;7.006;2022-11-13T04:09:46;7.10;99.90
14908;DHT22;7545;52.092;7.006;2022-11-13T04:12:11;7.00;99.90
14908;DHT22;7545;52.092;7.006;2022-11-13T04:14:37;7.00;99.90
14908;DHT22;7545;52.092;7.006;2022-11-13T04:17:02;7.00;99.90
14908;DHT22;7545;52.092;7.006;2022-11-13T04:19:28;7.00;99.90
14908;DHT22;7545;52.092;7.006;2022-11-13T04:21:53;7.00;99.90
14908;DHT22;7545;52.092;7.006;2022-11-13T04:24:19;7.00;99.90
14908;DHT22;7545;52.092;7.006;2022-11-13T04:26:45;7.00;99.90
14908;DHT22;7545;52.092;7.006;2022-11-13T04:29:10;6.90;99.90
14908;DHT22;7545;52.092;7.006;2022-11-13T04:31:36;6.90;99.90
14908;DHT22;7545;52.092;7.006;2022-11-13T04:34:01;6.90;99.90
14908;DHT22;7545;52.092;7.006;2022-11-13T04:36:27;6.90;99.90
14908;DHT22;7545;52.092;7.006;2022-11-13T04:38:52;6.90;99.90
14908;DHT22;7545;52.092;7.006;2022-11-13T04:41:18;6.80;99.90
14908;DHT22;7545;52.092;7.006;2022-11-13T04:44:02;6.80;99.90
14908;DHT22;7545;52.092;7.006;2022-11-13T04:46:28;6.80;99.90
14908;DHT22;7545;52.092;7.006;2022-11-13T04:48:53;6.80;99.90
14908;DHT22;7545;52.092;7.006;2022-11-13T04:51:19;6.80;99.90
14908;DHT22;7545;52.092;7.006;2022-11-13T04:53:44;6.80;99.90
14908;DHT22;7545;52.092;7.006;2022-11-13T04:56:10;6.80;99.90
14908;DHT22;7545;52.092;7.006;2022-11-13T04:58:35;6.70;99.90
14908;DHT22;7545;52.092;7.006;2022-11-13T05:01:01;6.70;99.90
14908;DHT22;7545;52.092;7.006;2022-11-13T05:03:28;6.70;99.90
14908;DHT22;7545;52.092;7.006;2022-11-13T05:06:04;6.70;99.90
14908;DHT22;7545;52.092;7.006;2022-11-13T05:08:30;6.60;99.90
14908;DHT22;7545;52.092;7.006;2022-11-13T05:10:55;6.60;99.90
14908;DHT22;7545;52.092;7.006;2022-11-13T05:13:21;6.50;99.90
14908;DHT22;7545;52.092;7.006;2022-11-13T05:15:47;6.60;99.90
14908;DHT22;7545;52.092;7.006;2022-11-13T05:18:12;6.60;99.90
14908;DHT22;7545;52.092;7.006;2022-11-13T05:20:38;6.50;99.90
14908;DHT22;7545;52.092;7.006;2022-11-13T05:23:03;6.60;99.90
14908;DHT22;7545;52.092;7.006;2022-11-13T05:25:29;6.60;99.90
14908;DHT22;7545;52.092;7.006;2022-11-13T05:27:57;6.40;99.90
14908;DHT22;7545;52.092;7.006;2022-11-13T05:30:23;6.50;99.90
14908;DHT22;7545;52.092;7.006;2022-11-13T05:32:50;6.50;99.90
14908;DHT22;7545;52.092;7.006;2022-11-13T05:35:15;6.50;99.90
14908;DHT22;7545;52.092;7.006;2022-11-13T05:37:41;6.40;99.90
14908;DHT22;7545;52.092;7.006;2022-11-13T05:40:07;6.40;99.90
14908;DHT22;7545;52.092;7.006;2022-11-13T05:42:32;6.40;99.90
14908;DHT22;7545;52.092;7.006;2022-11-13T05:44:58;6.40;99.90
14908;DHT22;7545;52.092;7.006;2022-11-13T05:47:24;6.30;99.90
14908;DHT22;7545;52.092;7.006;2022-11-13T05:49:49;6.40;99.90
14908;DHT22;7545;52.092;7.006;2022-11-13T05:52:15;6.40;99.90
14908;DHT22;7545;52.092;7.006;2022-11-13T05:54:40;6.30;99.90
14908;DHT22;7545;52.092;7.006;2022-11-13T05:57:06;6.30;99.90
14908;DHT22;7545;52.092;7.006;2022-11-13T05:59:31;6.30;99.90
14908;DHT22;7545;52.092;7.006;2022-11-13T06:01:57;6.30;99.90
14908;DHT22;7545;52.092;7.006;2022-11-13T06:04:22;6.30;99.90
14908;DHT22;7545;52.092;7.006;2022-11-13T06:06:48;6.30;99.90
14908;DHT22;7545;52.092;7.006;2022-11-13T06:09:14;6.30;99.90
14908;DHT22;7545;52.092;7.006;2022-11-13T06:11:43;6.30;99.90
14908;DHT22;7545;52.092;7.006;2022-11-13T06:14:09;6.20;99.90
14908;DHT22;7545;52.092;7.006;2022-11-13T06:16:37;6.20;99.90
14908;DHT22;7545;52.092;7.006;2022-11-13T06:19:06;6.20;99.90
14908;DHT22;7545;52.092;7.006;2022-11-13T06:21:34;6.20;99.90
14908;DHT22;7545;52.092;7.006;2022-11-13T06:24:01;6.20;99.90
14908;DHT22;7545;52.092;7.006;2022-11-13T06:26:29;6.10;99.90
14908;DHT22;7545;52.092;7.006;2022-11-13T06:28:56;6.10;99.90
14908;DHT22;7545;52.092;7.006;2022-11-13T06:31:30;6.10;99.90
14908;DHT22;7545;52.092;7.006;2022-11-13T06:33:56;6.10;99.90
14908;DHT22;7545;52.092;7.006;2022-11-13T06:36:28;6.10;99.90
14908;DHT22;7545;52.092;7.006;2022-11-13T06:38:54;6.10;99.90
14908;DHT22;7545;52.092;7.006;2022-11-13T06:41:22;6.20;99.90
14908;DHT22;7545;52.092;7.006;2022-11-13T06:43:49;6.10;99.90
14908;DHT22;7545;52.092;7.006;2022-11-13T06:46:20;6.10;99.90
14908;DHT22;7545;52.092;7.006;2022-11-13T06:48:46;6.00;99.90
14908;DHT22;7545;52.092;7.006;2022-11-13T06:51:20;6.00;99.90
14908;DHT22;7545;52.092;7.006;2022-11-13T06:53:46;6.00;99.90
14908;DHT22;7545;52.092;7.006;2022-11-13T06:56:13;6.00;99.90
14908;DHT22;7545;52.092;7.006;2022-11-13T06:58:39;6.00;99.90
14908;DHT22;7545;52.092;7.006;2022-11-13T07:01:09;6.00;99.90
14908;DHT22;7545;52.092;7.006;2022-11-13T07:03:35;6.00;99.90
14908;DHT22;7545;52.092;7.006;2022-11-13T07:06:07;5.90;99.90
14908;DHT22;7545;52.092;7.006;2022-11-13T07:08:33;6.00;99.90
14908;DHT22;7545;52.092;7.006;2022-11-13T07:10:59;6.00;99.90
14908;DHT22;7545;52.092;7.006;2022-11-13T07:13:26;6.00;99.90
14908;DHT22;7545;52.092;7.006;2022-11-13T07:15:52;5.90;99.90
14908;DHT22;7545;52.092;7.006;2022-11-13T07:18:18;5.90;99.90
14908;DHT22;7545;52.092;7.006;2022-11-13T07:20:44;5.90;99.90
14908;DHT22;7545;52.092;7.006;2022-11-13T07:23:10;5.90;99.90
14908;DHT22;7545;52.092;7.006;2022-11-13T07:25:35;5.90;99.90
14908;DHT22;7545;52.092;7.006;2022-11-13T07:28:01;5.90;99.90
14908;DHT22;7545;52.092;7.006;2022-11-13T07:30:27;6.00;99.90
14908;DHT22;7545;52.092;7.006;2022-11-13T07:32:53;6.00;99.90
14908;DHT22;7545;52.092;7.006;2022-11-13T07:35:19;5.90;99.90
14908;DHT22;7545;52.092;7.006;2022-11-13T07:37:44;6.00;99.90
14908;DHT22;7545;52.092;7.006;2022-11-13T07:40:10;6.00;99.90
14908;DHT22;7545;52.092;7.006;2022-11-13T07:42:36;6.00;99.90
14908;DHT22;7545;52.092;7.006;2022-11-13T07:45:03;6.00;99.90
14908;DHT22;7545;52.092;7.006;2022-11-13T07:47:29;6.10;99.90
14908;DHT22;7545;52.092;7.006;2022-11-13T07:49:54;6.10;99.90
14908;DHT22;7545;52.092;7.006;2022-11-13T07:52:20;6.10;99.90
14908;DHT22;7545;52.092;7.006;2022-11-13T07:54:46;6.10;99.90
14908;DHT22;7545;52.092;7.006;2022-11-13T07:57:12;6.10;99.90
14908;DHT22;7545;52.092;7.006;2022-11-13T07:59:38;6.10;99.90
14908;DHT22;7545;52.092;7.006;2022-11-13T08:02:04;6.10;99.90
14908;DHT22;7545;52.092;7.006;2022-11-13T08:04:30;6.20;99.90
14908;DHT22;7545;52.092;7.006;2022-11-13T08:06:56;6.30;99.90
14908;DHT22;7545;52.092;7.006;2022-11-13T08:09:22;6.20;99.90
14908;DHT22;7545;52.092;7.006;2022-11-13T08:11:47;6.20;99.90
14908;DHT22;7545;52.092;7.006;2022-11-13T08:14:13;6.30;99.90
14908;DHT22;7545;52.092;7.006;2022-11-13T08:16:38;6.30;99.90
14908;DHT22;7545;52.092;7.006;2022-11-13T08:19:04;6.30;99.90
14908;DHT22;7545;52.092;7.006;2022-11-13T08:21:29;6.40;99.90
14908;DHT22;7545;52.092;7.006;2022-11-13T08:23:55;6.40;99.90
14908;DHT22;7545;52.092;7.006;2022-11-13T08:26:21;6.40;99.90
14908;DHT22;7545;52.092;7.006;2022-11-13T08:28:47;6.40;99.90
14908;DHT22;7545;52.092;7.006;2022-11-13T08:31:14;6.50;99.90
14908;DHT22;7545;52.092;7.006;2022-11-13T08:33:40;6.50;99.90
14908;DHT22;7545;52.092;7.006;2022-11-13T08:36:06;6.50;99.90
14908;DHT22;7545;52.092;7.006;2022-11-13T08:38:32;6.60;99.90
14908;DHT22;7545;52.092;7.006;2022-11-13T08:41:01;6.70;99.90
14908;DHT22;7545;52.092;7.006;2022-11-13T08:43:27;6.70;99.90
14908;DHT22;7545;52.092;7.006;2022-11-13T08:45:52;6.80;99.90
14908;DHT22;7545;52.092;7.006;2022-11-13T08:48:18;6.80;99.90
14908;DHT22;7545;52.092;7.006;2022-11-13T08:50:44;6.90;99.90
14908;DHT22;7545;52.092;7.006;2022-11-13T08:53:10;7.00;99.90
14908;DHT22;7545;52.092;7.006;2022-11-13T08:55:36;7.00;99.90
14908;DHT22;7545;52.092;7.006;2022-11-13T08:58:03;7.10;99.90
14908;DHT22;7545;52.092;7.006;2022-11-13T09:00:30;7.20;99.90
14908;DHT22;7545;52.092;7.006;2022-11-13T09:02:57;7.20;99.90
14908;DHT22;7545;52.092;7.006;2022-11-13T09:05:23;7.30;99.90
14908;DHT22;7545;52.092;7.006;2022-11-13T09:07:49;7.40;99.90
14908;DHT22;7545;52.092;7.006;2022-11-13T09:10:16;7.50;99.90
14908;DHT22;7545;52.092;7.006;2022-11-13T09:12:42;7.50;99.90
14908;DHT22;7545;52.092;7.006;2022-11-13T09:15:09;7.60;99.90
14908;DHT22;7545;52.092;7.006;2022-11-13T09:17:34;7.70;99.90
14908;DHT22;7545;52.092;7.006;2022-11-13T09:20:00;7.80;99.90
14908;DHT22;7545;52.092;7.006;2022-11-13T09:22:25;7.80;99.90
14908;DHT22;7545;52.092;7.006;2022-11-13T09:24:51;7.90;99.90
14908;DHT22;7545;52.092;7.006;2022-11-13T09:27:17;8.00;99.90
14908;DHT22;7545;52.092;7.006;2022-11-13T09:29:43;8.10;99.90
14908;DHT22;7545;52.092;7.006;2022-11-13T09:32:09;8.10;99.90
14908;DHT22;7545;52.092;7.006;2022-11-13T09:34:34;8.20;99.90
14908;DHT22;7545;52.092;7.006;2022-11-13T09:37:00;8.30;99.90
14908;DHT22;7545;52.092;7.006;2022-11-13T09:39:25;8.40;99.90
14908;DHT22;7545;52.092;7.006;2022-11-13T09:42:12;8.50;99.90
14908;DHT22;7545;52.092;7.006;2022-11-13T09:44:54;8.50;99.90
14908;DHT22;7545;52.092;7.006;2022-11-13T09:47:36;8.60;99.90
14908;DHT22;7545;52.092;7.006;2022-11-13T09:50:20;8.70;99.90
14908;DHT22;7545;52.092;7.006;2022-11-13T09:52:46;8.80;99.90
14908;DHT22;7545;52.092;7.006;2022-11-13T09:55:16;8.90;99.90
14908;DHT22;7545;52.092;7.006;2022-11-13T09:58:06;9.00;99.90
14908;DHT22;7545;52.092;7.006;2022-11-13T10:00:34;9.10;99.90
14908;DHT22;7545;52.092;7.006;2022-11-13T10:08:46;9.30;99.90
14908;DHT22;7545;52.092;7.006;2022-11-13T10:11:32;9.40;99.90
14908;DHT22;7545;52.092;7.006;2022-11-13T10:14:03;9.50;99.90
14908;DHT22;7545;52.092;7.006;2022-11-13T10:17:02;9.50;99.90
14908;DHT22;7545;52.092;7.006;2022-11-13T10:22:04;9.70;99.90
14908;DHT22;7545;52.092;7.006;2022-11-13T10:24:42;9.80;99.90
14908;DHT22;7545;52.092;7.006;2022-11-13T10:27:12;9.90;99.90
14908;DHT22;7545;52.092;7.006;2022-11-13T10:29:38;10.00;99.90
14908;DHT22;7545;52.092;7.006;2022-11-13T10:34:49;10.30;99.90
14908;DHT22;7545;52.092;7.006;2022-11-13T10:37:27;10.40;99.90
14908;DHT22;7545;52.092;7.006;2022-11-13T10:39:54;10.50;99.90
14908;DHT22;7545;52.092;7.006;2022-11-13T10:42:27;10.50;99.90
14908;DHT22;7545;52.092;7.006;2022-11-13T10:44:58;10.60;99.90
14908;DHT22;7545;52.092;7.006;2022-11-13T10:47:26;10.70;99.90
14908;DHT22;7545;52.092;7.006;2022-11-13T10:49:54;10.70;99.90
14908;DHT22;7545;52.092;7.006;2022-11-13T10:52:24;10.80;99.90
14908;DHT22;7545;52.092;7.006;2022-11-13T10:55:04;10.90;99.90
14908;DHT22;7545;52.092;7.006;2022-11-13T10:57:36;11.00;99.90
14908;DHT22;7545;52.092;7.006;2022-11-13T11:00:38;11.10;99.90
14908;DHT22;7545;52.092;7.006;2022-11-13T11:03:17;11.30;99.90
14908;DHT22;7545;52.092;7.006;2022-11-13T11:05:54;11.40;99.90
14908;DHT22;7545;52.092;7.006;2022-11-13T11:08:22;11.60;99.90
14908;DHT22;7545;52.092;7.006;2022-11-13T11:10:58;11.80;99.90
14908;DHT22;7545;52.092;7.006;2022-11-13T11:13:44;11.80;99.90
14908;DHT22;7545;52.092;7.006;2022-11-13T11:16:20;12.00;99.90
14908;DHT22;7545;52.092;7.006;2022-11-13T11:18:58;12.10;99.90
14908;DHT22;7545;52.092;7.006;2022-11-13T11:21:29;12.20;99.90
14908;DHT22;7545;52.092;7.006;2022-11-13T11:24:13;12.30;99.90
14908;DHT22;7545;52.092;7.006;2022-11-13T11:26:47;12.40;99.90
14908;DHT22;7545;52.092;7.006;2022-11-13T11:29:24;12.50;99.90
14908;DHT22;7545;52.092;7.006;2022-11-13T11:35:25;12.70;99.90
14908;DHT22;7545;52.092;7.006;2022-11-13T11:37:35;12.80;99.90
14908;DHT22;7545;52.092;7.006;2022-11-13T11:40:16;12.90;99.90
14908;DHT22;7545;52.092;7.006;2022-11-13T11:42:49;12.90;99.90
14908;DHT22;7545;52.092;7.006;2022-11-13T11:45:27;13.10;99.90
14908;DHT22;7545;52.092;7.006;2022-11-13T11:47:55;13.10;99.90
14908;DHT22;7545;52.092;7.006;2022-11-13T11:53:16;13.30;99.90
14908;DHT22;7545;52.092;7.006;2022-11-13T12:01:12;13.40;99.90
14908;DHT22;7545;52.092;7.006;2022-11-13T12:06:40;13.60;99.90
14908;DHT22;7545;52.092;7.006;2022-11-13T12:09:18;13.70;99.90
14908;DHT22;7545;52.092;7.006;2022-11-13T12:15:03;14.00;99.90
14908;DHT22;7545;52.092;7.006;2022-11-13T12:17:47;14.10;99.90
14908;DHT22;7545;52.092;7.006;2022-11-13T12:20:34;14.30;99.90
14908;DHT22;7545;52.092;7.006;2022-11-13T12:23:19;14.40;99.90
14908;DHT22;7545;52.092;7.006;2022-11-13T12:26:04;14.60;99.90
14908;DHT22;7545;52.092;7.006;2022-11-13T12:28:45;14.70;99.90
14908;DHT22;7545;52.092;7.006;2022-11-13T12:36:24;14.90;99.90
14908;DHT22;7545;52.092;7.006;2022-11-13T12:39:43;15.00;99.90
14908;DHT22;7545;52.092;7.006;2022-11-13T12:45:10;15.20;99.90
14908;DHT22;7545;52.092;7.006;2022-11-13T12:47:36;15.30;99.90
14908;DHT22;7545;52.092;7.006;2022-11-13T12:52:59;15.40;99.90
14908;DHT22;7545;52.092;7.006;2022-11-13T12:55:30;15.40;99.90
14908;DHT22;7545;52.092;7.006;2022-11-13T13:01:04;15.40;99.90
14908;DHT22;7545;52.092;7.006;2022-11-13T13:09:49;15.40;99.90
14908;DHT22;7545;52.092;7.006;2022-11-13T13:12:19;15.40;99.90
14908;DHT22;7545;52.092;7.006;2022-11-13T13:15:39;15.40;99.90
14908;DHT22;7545;52.092;7.006;2022-11-13T13:17:39;15.40;99.90
14908;DHT22;7545;52.092;7.006;2022-11-13T13:20:35;15.40;99.90
14908;DHT22;7545;52.092;7.006;2022-11-13T13:23:01;15.40;99.90
14908;DHT22;7545;52.092;7.006;2022-11-13T13:25:33;15.40;99.90
14908;DHT22;7545;52.092;7.006;2022-11-13T13:33:21;15.30;99.90
14908;DHT22;7545;52.092;7.006;2022-11-13T13:36:24;15.30;99.90
14908;DHT22;7545;52.092;7.006;2022-11-13T13:39:12;15.30;99.90
14908;DHT22;7545;52.092;7.006;2022-11-13T13:42:02;15.20;99.90
14908;DHT22;7545;52.092;7.006;2022-11-13T13:44:36;15.20;99.90
14908;DHT22;7545;52.092;7.006;2022-11-13T13:47:13;15.20;99.90
14908;DHT22;7545;52.092;7.006;2022-11-13T13:49:40;15.20;99.90
14908;DHT22;7545;52.092;7.006;2022-11-13T13:52:05;15.10;99.90
14908;DHT22;7545;52.092;7.006;2022-11-13T13:54:32;15.10;99.90
14908;DHT22;7545;52.092;7.006;2022-11-13T13:56:59;15.10;99.90
14908;DHT22;7545;52.092;7.006;2022-11-13T13:59:32;15.00;99.90
14908;DHT22;7545;52.092;7.006;2022-11-13T14:02:00;15.00;99.90
14908;DHT22;7545;52.092;7.006;2022-11-13T14:04:33;15.00;99.90
14908;DHT22;7545;52.092;7.006;2022-11-13T14:07:01;15.00;99.90
14908;DHT22;7545;52.092;7.006;2022-11-13T14:09:29;14.90;99.90
14908;DHT22;7545;52.092;7.006;2022-11-13T14:12:15;14.90;99.90
14908;DHT22;7545;52.092;7.006;2022-11-13T14:14:41;14.90;99.90
14908;DHT22;7545;52.092;7.006;2022-11-13T14:17:08;14.80;99.90
14908;DHT22;7545;52.092;7.006;2022-11-13T14:19:34;14.80;99.90
14908;DHT22;7545;52.092;7.006;2022-11-13T14:22:01;14.70;99.90
14908;DHT22;7545;52.092;7.006;2022-11-13T14:24:30;14.70;99.90
14908;DHT22;7545;52.092;7.006;2022-11-13T14:27:00;14.60;99.90
14908;DHT22;7545;52.092;7.006;2022-11-13T14:29:36;14.50;99.90
14908;DHT22;7545;52.092;7.006;2022-11-13T14:32:12;14.50;99.90
14908;DHT22;7545;52.092;7.006;2022-11-13T14:34:45;14.40;99.90
14908;DHT22;7545;52.092;7.006;2022-11-13T14:37:34;14.30;99.90
14908;DHT22;7545;52.092;7.006;2022-11-13T14:40:44;14.30;99.90
14908;DHT22;7545;52.092;7.006;2022-11-13T14:42:57;14.20;99.90
14908;DHT22;7545;52.092;7.006;2022-11-13T14:45:26;14.10;99.90
14908;DHT22;7545;52.092;7.006;2022-11-13T14:48:21;14.10;99.90
14908;DHT22;7545;52.092;7.006;2022-11-13T14:50:59;14.00;99.90
14908;DHT22;7545;52.092;7.006;2022-11-13T14:53:40;14.00;99.90
14908;DHT22;7545;52.092;7.006;2022-11-13T14:56:08;13.90;99.90
14908;DHT22;7545;52.092;7.006;2022-11-13T14:58:40;13.90;99.90
14908;DHT22;7545;52.092;7.006;2022-11-13T15:01:26;13.80;99.90
14908;DHT22;7545;52.092;7.006;2022-11-13T15:03:51;13.70;99.90
14908;DHT22;7545;52.092;7.006;2022-11-13T15:06:19;13.60;99.90
14908;DHT22;7545;52.092;7.006;2022-11-13T15:08:46;13.60;99.90
14908;DHT22;7545;52.092;7.006;2022-11-13T15:11:13;13.50;99.90
14908;DHT22;7545;52.092;7.006;2022-11-13T15:13:39;13.40;99.90
14908;DHT22;7545;52.092;7.006;2022-11-13T15:16:05;13.40;99.90
14908;DHT22;7545;52.092;7.006;2022-11-13T15:18:31;13.30;99.90
14908;DHT22;7545;52.092;7.006;2022-11-13T15:20:57;13.20;99.90
14908;DHT22;7545;52.092;7.006;2022-11-13T15:23:24;13.10;99.90
14908;DHT22;7545;52.092;7.006;2022-11-13T15:25:50;13.10;99.90
14908;DHT22;7545;52.092;7.006;2022-11-13T15:28:16;13.00;99.90
14908;DHT22;7545;52.092;7.006;2022-11-13T15:30:42;12.90;99.90
14908;DHT22;7545;52.092;7.006;2022-11-13T15:33:14;12.90;99.90
14908;DHT22;7545;52.092;7.006;2022-11-13T15:35:41;12.80;99.90
14908;DHT22;7545;52.092;7.006;2022-11-13T15:38:08;12.70;99.90
14908;DHT22;7545;52.092;7.006;2022-11-13T15:40:34;12.60;99.90
14908;DHT22;7545;52.092;7.006;2022-11-13T15:43:00;12.60;99.90
14908;DHT22;7545;52.092;7.006;2022-11-13T15:45:26;12.50;99.90
14908;DHT22;7545;52.092;7.006;2022-11-13T15:47:51;12.30;99.90
14908;DHT22;7545;52.092;7.006;2022-11-13T15:50:17;12.30;99.90
14908;DHT22;7545;52.092;7.006;2022-11-13T15:52:45;12.20;99.90
14908;DHT22;7545;52.092;7.006;2022-11-13T15:55:27;12.10;99.90
14908;DHT22;7545;52.092;7.006;2022-11-13T15:57:54;12.10;99.90
14908;DHT22;7545;52.092;7.006;2022-11-13T16:00:22;11.90;99.90
14908;DHT22;7545;52.092;7.006;2022-11-13T16:02:50;11.90;99.90
14908;DHT22;7545;52.092;7.006;2022-11-13T16:05:16;11.80;99.90
14908;DHT22;7545;52.092;7.006;2022-11-13T16:07:42;11.70;99.90
14908;DHT22;7545;52.092;7.006;2022-11-13T16:10:08;11.70;99.90
14908;DHT22;7545;52.092;7.006;2022-11-13T16:12:35;11.60;99.90
14908;DHT22;7545;52.092;7.006;2022-11-13T16:15:00;11.60;99.90
14908;DHT22;7545;52.092;7.006;2022-11-13T16:17:26;11.60;99.90
14908;DHT22;7545;52.092;7.006;2022-11-13T16:19:53;11.60;99.90
14908;DHT22;7545;52.092;7.006;2022-11-13T16:22:22;11.60;99.90
14908;DHT22;7545;52.092;7.006;2022-11-13T16:24:48;11.60;99.90
14908;DHT22;7545;52.092;7.006;2022-11-13T16:27:34;11.50;99.90
14908;DHT22;7545;52.092;7.006;2022-11-13T16:30:00;11.50;99.90
14908;DHT22;7545;52.092;7.006;2022-11-13T16:32:25;11.50;99.90
14908;DHT22;7545;52.092;7.006;2022-11-13T16:34:51;11.50;99.90
14908;DHT22;7545;52.092;7.006;2022-11-13T16:37:21;11.60;99.90
14908;DHT22;7545;52.092;7.006;2022-11-13T16:39:47;11.60;99.90
14908;DHT22;7545;52.092;7.006;2022-11-13T16:42:13;11.50;99.90
14908;DHT22;7545;52.092;7.006;2022-11-13T16:44:39;11.50;99.90
14908;DHT22;7545;52.092;7.006;2022-11-13T16:47:06;11.50;99.90
14908;DHT22;7545;52.092;7.006;2022-11-13T16:49:38;11.50;99.90
14908;DHT22;7545;52.092;7.006;2022-11-13T16:52:03;11.40;99.90
14908;DHT22;7545;52.092;7.006;2022-11-13T16:54:29;11.40;99.90
14908;DHT22;7545;52.092;7.006;2022-11-13T16:56:55;11.40;99.90
14908;DHT22;7545;52.092;7.006;2022-11-13T16:59:20;11.30;99.90
14908;DHT22;7545;52.092;7.006;2022-11-13T17:01:47;11.30;99.90
14908;DHT22;7545;52.092;7.006;2022-11-13T17:04:17;11.30;99.90